createdAt,value
2023-04-09T00:01:21.050Z,39.47
2023-04-09T00:03:48.476Z,38.53
2023-04-09T00:06:16.350Z,39.80
2023-04-09T00:08:45.181Z,40.30
2023-04-09T00:11:12.485Z,41.47
2023-04-09T00:13:40.151Z,42.72
2023-04-09T00:16:07.833Z,42.22
2023-04-09T00:18:35.226Z,43.08
2023-04-09T00:21:02.511Z,44.10
2023-04-09T00:23:29.874Z,47.33
2023-04-09T00:25:58.546Z,46.67
2023-04-09T00:28:25.939Z,45.45
2023-04-09T00:30:53.443Z,43.72
2023-04-09T00:33:20.737Z,43.88
2023-04-09T00:35:48.059Z,42.55
2023-04-09T00:38:15.443Z,43.00
2023-04-09T00:40:42.813Z,40.70
2023-04-09T00:43:11.990Z,42.40
2023-04-09T00:45:39.338Z,40.42
2023-04-09T00:48:06.757Z,41.00
2023-04-09T00:50:34.071Z,42.22
2023-04-09T00:53:01.441Z,42.53
2023-04-09T00:55:29.022Z,43.75
2023-04-09T00:57:56.379Z,42.88
2023-04-09T01:00:25.406Z,42.03
2023-04-09T01:02:53.803Z,42.17
2023-04-09T01:05:21.277Z,43.13
2023-04-09T01:07:54.911Z,42.45
2023-04-09T01:10:25.642Z,42.20
2023-04-09T01:12:56.299Z,43.20
2023-04-09T01:15:27.283Z,41.70
2023-04-09T01:17:57.133Z,42.67
2023-04-09T01:20:30.209Z,41.08
2023-04-09T01:23:00.316Z,40.85
2023-04-09T01:25:34.441Z,40.13
2023-04-09T01:28:13.192Z,40.38
2023-04-09T01:30:41.148Z,41.08
2023-04-09T01:33:09.421Z,39.75
2023-04-09T01:35:36.898Z,41.95
2023-04-09T01:38:04.722Z,44.17
2023-04-09T01:40:32.119Z,42.78
2023-04-09T01:43:00.908Z,42.92
2023-04-09T01:45:29.600Z,41.53
2023-04-09T01:47:57.099Z,44.17
2023-04-09T01:50:24.618Z,44.17
2023-04-09T01:52:51.953Z,44.90
2023-04-09T01:55:19.356Z,45.65
2023-04-09T01:57:46.680Z,47.40
2023-04-09T02:00:14.591Z,47.17
2023-04-09T02:02:47.447Z,49.55
2023-04-09T02:05:16.380Z,48.95
2023-04-09T02:07:44.836Z,47.20
2023-04-09T02:10:13.783Z,47.20
2023-04-09T02:12:43.591Z,47.05
2023-04-09T02:15:11.605Z,46.65
2023-04-09T02:17:38.996Z,47.50
2023-04-09T02:20:08.944Z,50.33
2023-04-09T02:22:36.239Z,49.47
2023-04-09T02:25:03.570Z,48.22
2023-04-09T02:27:30.868Z,47.63
2023-04-09T02:29:58.202Z,47.88
2023-04-09T02:32:26.491Z,48.38
2023-04-09T02:34:53.837Z,46.90
2023-04-09T02:37:22.552Z,48.90
2023-04-09T02:39:49.895Z,47.65
2023-04-09T02:42:17.233Z,50.65
2023-04-09T02:44:45.137Z,51.13
2023-04-09T02:47:12.410Z,50.90
2023-04-09T02:49:39.720Z,49.63
2023-04-09T02:52:07.000Z,45.95
2023-04-09T02:54:35.715Z,45.00
2023-04-09T02:57:03.113Z,44.38
2023-04-09T02:59:32.220Z,45.75
2023-04-09T03:01:59.627Z,44.22
2023-04-09T03:04:27.085Z,45.13
2023-04-09T03:06:54.427Z,45.78
2023-04-09T03:09:21.747Z,44.22
2023-04-09T03:11:50.463Z,46.60
2023-04-09T03:14:17.752Z,45.65
2023-04-09T03:16:45.029Z,43.00
2023-04-09T03:19:12.346Z,46.80
2023-04-09T03:21:39.686Z,42.97
2023-04-09T03:24:07.122Z,44.92
2023-04-09T03:26:36.867Z,47.20
2023-04-09T03:29:06.103Z,43.33
2023-04-09T03:31:33.680Z,43.95
2023-04-09T03:34:01.046Z,41.42
2023-04-09T03:36:28.793Z,42.78
2023-04-09T03:38:56.178Z,40.55
2023-04-09T03:41:23.508Z,40.38
2023-04-09T03:43:50.809Z,41.40
2023-04-09T03:46:19.609Z,41.30
2023-04-09T03:48:46.939Z,39.83
2023-04-09T03:51:14.414Z,44.08
2023-04-09T03:53:41.883Z,42.40
2023-04-09T03:56:09.362Z,43.63
2023-04-09T03:58:36.746Z,43.20
2023-04-09T04:01:04.083Z,43.67
2023-04-09T04:03:32.951Z,42.92
2023-04-09T04:06:01.261Z,42.92
2023-04-09T04:08:28.579Z,43.25
2023-04-09T04:10:56.102Z,45.90
2023-04-09T04:13:23.450Z,44.75
2023-04-09T04:15:50.772Z,42.60
2023-04-09T04:18:18.081Z,42.22
2023-04-09T04:20:46.804Z,43.30
2023-04-09T04:23:14.142Z,46.15
2023-04-09T04:25:41.764Z,44.83
2023-04-09T04:28:09.141Z,46.67
2023-04-09T04:30:36.464Z,46.30
2023-04-09T04:33:03.793Z,44.97
2023-04-09T04:35:31.140Z,44.95
2023-04-09T04:37:59.790Z,43.92
2023-04-09T04:40:27.112Z,44.40
2023-04-09T04:42:54.418Z,44.58
2023-04-09T04:45:21.711Z,44.60
2023-04-09T04:47:49.126Z,44.53
2023-04-09T04:50:16.444Z,43.85
2023-04-09T04:52:43.775Z,41.63
2023-04-09T04:55:12.544Z,45.40
2023-04-09T04:57:39.819Z,43.95
2023-04-09T05:00:08.575Z,42.10
2023-04-09T05:02:35.944Z,42.05
2023-04-09T05:05:03.349Z,41.00
2023-04-09T05:07:30.758Z,43.05
2023-04-09T05:09:58.105Z,44.55
2023-04-09T05:12:26.786Z,41.53
2023-04-09T05:14:54.144Z,40.92
2023-04-09T05:17:21.512Z,42.60
2023-04-09T05:19:51.650Z,40.28
2023-04-09T05:22:18.954Z,40.10
2023-04-09T05:24:46.312Z,39.85
2023-04-09T05:27:13.606Z,37.42
2023-04-09T05:29:42.276Z,37.90
2023-04-09T05:32:10.825Z,38.03
2023-04-09T05:34:38.094Z,38.53
2023-04-09T05:37:05.464Z,35.63
2023-04-09T05:39:33.369Z,37.28
2023-04-09T05:42:00.824Z,36.17
2023-04-09T05:44:28.186Z,34.72
2023-04-09T05:46:57.100Z,34.97
2023-04-09T05:49:24.470Z,36.50
2023-04-09T05:51:51.869Z,32.10
2023-04-09T05:54:19.202Z,31.98
2023-04-09T05:56:47.980Z,33.03
2023-04-09T05:59:15.274Z,31.40
2023-04-09T06:01:42.628Z,29.83
2023-04-09T06:04:11.751Z,29.33
2023-04-09T06:06:39.590Z,28.85
2023-04-09T06:09:06.901Z,31.05
2023-04-09T06:11:34.367Z,27.50
2023-04-09T06:14:01.728Z,27.73
2023-04-09T06:16:29.134Z,24.40
2023-04-09T06:18:56.891Z,22.85
2023-04-09T06:21:25.568Z,22.95
2023-04-09T06:23:53.975Z,22.90
2023-04-09T06:26:21.644Z,19.83
2023-04-09T06:28:48.927Z,20.30
2023-04-09T06:31:16.601Z,19.15
2023-04-09T06:33:43.929Z,20.02
2023-04-09T06:36:11.745Z,18.73
2023-04-09T06:38:40.385Z,18.95
2023-04-09T06:41:09.002Z,19.77
2023-04-09T06:43:37.331Z,18.95
2023-04-09T06:46:04.699Z,18.58
2023-04-09T06:48:32.198Z,17.13
2023-04-09T06:50:59.534Z,18.05
2023-04-09T06:53:26.974Z,17.80
2023-04-09T06:55:57.130Z,17.27
2023-04-09T06:58:24.659Z,16.75
2023-04-09T07:00:51.959Z,17.00
2023-04-09T07:03:19.369Z,16.83
2023-04-09T07:05:47.119Z,16.88
2023-04-09T07:08:14.402Z,16.80
2023-04-09T07:10:41.695Z,16.05
2023-04-09T07:13:10.473Z,15.77
2023-04-09T07:15:39.132Z,16.33
2023-04-09T07:18:06.969Z,16.63
2023-04-09T07:20:34.354Z,16.05
2023-04-09T07:23:01.706Z,15.57
2023-04-09T07:25:29.078Z,15.27
2023-04-09T07:27:56.870Z,15.43
2023-04-09T07:30:25.598Z,15.65
2023-04-09T07:32:52.951Z,16.02
2023-04-09T07:35:20.385Z,15.88
2023-04-09T07:37:47.784Z,14.98
2023-04-09T07:40:15.263Z,14.10
2023-04-09T07:42:42.558Z,13.93
2023-04-09T07:45:10.270Z,13.20
2023-04-09T07:47:39.336Z,13.07
2023-04-09T07:50:07.183Z,13.10
2023-04-09T07:52:34.532Z,12.35
2023-04-09T07:55:01.841Z,11.60
2023-04-09T07:57:29.175Z,10.93
2023-04-09T07:59:56.636Z,11.05
2023-04-09T08:02:24.244Z,10.98
2023-04-09T08:04:53.212Z,10.90
2023-04-09T08:07:20.607Z,11.00
2023-04-09T08:09:47.941Z,12.25
2023-04-09T08:12:15.457Z,10.82
2023-04-09T08:14:43.778Z,11.13
2023-04-09T08:17:11.227Z,11.07
2023-04-09T08:19:41.096Z,11.35
2023-04-09T08:22:10.642Z,11.52
2023-04-09T08:24:38.709Z,11.77
2023-04-09T08:27:06.038Z,11.35
2023-04-09T08:29:34.359Z,11.63
2023-04-09T08:32:01.752Z,10.50
2023-04-09T08:34:29.253Z,11.88
2023-04-09T08:36:56.849Z,11.85
2023-04-09T08:39:25.966Z,12.02
2023-04-09T08:41:53.258Z,10.90
2023-04-09T08:44:21.919Z,10.90
2023-04-09T08:46:49.762Z,9.88
2023-04-09T08:49:17.090Z,9.38
2023-04-09T08:51:46.568Z,9.13
2023-04-09T08:54:15.771Z,8.27
2023-04-09T08:56:44.428Z,7.97
2023-04-09T08:59:11.725Z,7.40
2023-04-09T09:01:39.055Z,7.35
2023-04-09T09:04:07.217Z,7.10
2023-04-09T09:06:35.796Z,6.20
2023-04-09T09:09:05.058Z,7.15
2023-04-09T09:11:32.435Z,7.18
2023-04-09T09:14:01.823Z,6.20
2023-04-09T09:16:29.317Z,6.63
2023-04-09T09:18:57.571Z,5.43
2023-04-09T09:21:27.232Z,5.50
2023-04-09T09:23:54.595Z,6.63
2023-04-09T09:26:22.945Z,5.88
2023-04-09T09:28:51.153Z,6.78
2023-04-09T09:31:20.995Z,5.45
2023-04-09T09:33:48.823Z,6.00
2023-04-09T09:36:16.835Z,6.88
2023-04-09T09:38:54.645Z,6.43
2023-04-09T09:41:22.641Z,6.40
2023-04-09T09:43:50.443Z,6.45
2023-04-09T09:46:17.981Z,6.65
2023-04-09T09:48:47.103Z,6.53
2023-04-09T09:51:14.859Z,7.70
2023-04-09T09:53:44.356Z,6.80
2023-04-09T09:56:15.414Z,6.18
2023-04-09T09:58:44.949Z,6.80
2023-04-09T10:01:14.124Z,6.38
2023-04-09T10:03:43.057Z,7.25
2023-04-09T10:06:13.333Z,6.53
2023-04-09T10:08:41.722Z,6.75
2023-04-09T10:11:08.995Z,7.25
2023-04-09T10:13:37.154Z,7.18
2023-04-09T10:16:06.034Z,7.80
2023-04-09T10:18:34.603Z,5.40
2023-04-09T10:21:04.373Z,5.38
2023-04-09T10:23:34.804Z,5.07
2023-04-09T10:26:04.144Z,6.53
2023-04-09T10:28:32.009Z,5.38
2023-04-09T10:30:59.673Z,4.75
2023-04-09T10:33:27.801Z,5.40
2023-04-09T10:35:55.597Z,6.18
2023-04-09T10:38:40.773Z,5.45
2023-04-09T10:41:09.087Z,6.30
2023-04-09T10:43:37.402Z,5.55
2023-04-09T10:46:05.694Z,6.50
2023-04-09T10:48:35.974Z,5.65
2023-04-09T10:51:04.935Z,7.22
2023-04-09T10:53:33.303Z,6.10
2023-04-09T10:56:02.533Z,6.45
2023-04-09T10:58:29.837Z,6.28
2023-04-09T11:01:02.138Z,6.13
2023-04-09T11:03:32.069Z,5.85
2023-04-09T11:06:01.163Z,6.20
2023-04-09T11:08:32.529Z,6.95
2023-04-09T11:11:01.380Z,7.25
2023-04-09T11:13:31.654Z,6.53
2023-04-09T11:16:00.134Z,7.30
2023-04-09T11:18:28.313Z,6.97
2023-04-09T11:20:56.155Z,7.57
2023-04-09T11:23:24.373Z,7.80
2023-04-09T11:25:52.281Z,8.77
2023-04-09T11:28:19.947Z,7.88
2023-04-09T11:30:50.988Z,7.57
2023-04-09T11:33:20.026Z,6.72
2023-04-09T11:35:48.161Z,7.53
2023-04-09T11:38:15.695Z,6.65
2023-04-09T11:40:47.998Z,7.28
2023-04-09T11:43:16.876Z,6.80
2023-04-09T11:45:44.485Z,6.25
2023-04-09T11:48:13.521Z,6.95
2023-04-09T11:50:41.362Z,7.20
2023-04-09T11:53:16.632Z,6.63
2023-04-09T11:55:44.001Z,7.47
2023-04-09T11:58:11.604Z,7.20
2023-04-09T12:00:41.460Z,7.40
2023-04-09T12:03:09.016Z,7.32
2023-04-09T12:05:40.615Z,7.47
2023-04-09T12:08:09.416Z,6.93
2023-04-09T12:10:38.592Z,7.65
2023-04-09T12:13:07.050Z,7.72
2023-04-09T12:15:35.066Z,6.82
2023-04-09T12:18:02.547Z,6.38
2023-04-09T12:20:31.154Z,7.20
2023-04-09T12:23:01.196Z,7.90
2023-04-09T12:25:28.608Z,8.07
2023-04-09T12:27:56.324Z,7.82
2023-04-09T12:30:23.741Z,6.80
2023-04-09T12:32:51.615Z,6.07
2023-04-09T12:35:19.005Z,6.95
2023-04-09T12:37:47.128Z,7.53
2023-04-09T12:40:16.221Z,6.68
2023-04-09T12:42:44.245Z,7.00
2023-04-09T12:45:12.097Z,6.78
2023-04-09T12:47:41.143Z,7.90
2023-04-09T12:50:09.183Z,7.05
2023-04-09T12:52:36.803Z,6.40
2023-04-09T12:55:04.430Z,6.25
2023-04-09T12:57:33.221Z,6.85
2023-04-09T13:00:00.718Z,6.20
2023-04-09T13:02:28.308Z,6.30
2023-04-09T13:04:55.701Z,6.57
2023-04-09T13:07:23.426Z,6.78
2023-04-09T13:09:51.180Z,6.45
2023-04-09T13:12:18.606Z,7.00
2023-04-09T13:14:47.430Z,6.82
2023-04-09T13:17:15.023Z,6.60
2023-04-09T13:19:42.949Z,6.82
2023-04-09T13:22:10.445Z,7.05
2023-04-09T13:24:38.037Z,7.03
2023-04-09T13:27:05.623Z,6.40
2023-04-09T13:29:32.956Z,7.10
2023-04-09T13:32:06.792Z,7.15
2023-04-09T13:34:34.631Z,6.00
2023-04-09T13:37:02.154Z,6.88
2023-04-09T13:39:29.503Z,6.97
2023-04-09T13:41:57.025Z,6.85
2023-04-09T13:44:24.600Z,7.10
2023-04-09T13:46:51.917Z,7.05
2023-04-09T13:49:20.994Z,6.90
2023-04-09T13:51:49.390Z,6.78
2023-04-09T13:54:16.766Z,6.70
2023-04-09T13:56:44.926Z,6.80
2023-04-09T13:59:12.442Z,6.93
2023-04-09T14:01:39.862Z,6.25
2023-04-09T14:04:07.378Z,6.00
2023-04-09T14:06:36.205Z,6.30
2023-04-09T14:09:03.573Z,6.78
2023-04-09T14:11:31.038Z,6.80
2023-04-09T14:13:58.381Z,6.90
2023-04-09T14:16:25.922Z,6.43
2023-04-09T14:18:53.440Z,5.90
2023-04-09T14:21:20.874Z,6.60
2023-04-09T14:23:49.566Z,6.28
2023-04-09T14:26:17.031Z,6.68
2023-04-09T14:28:44.774Z,6.47
2023-04-09T14:31:13.301Z,6.38
2023-04-09T14:33:40.685Z,6.30
2023-04-09T14:36:08.377Z,5.72
2023-04-09T14:38:35.697Z,5.32
2023-04-09T14:41:04.433Z,6.18
2023-04-09T14:43:31.737Z,5.00
2023-04-09T14:45:59.114Z,5.65
2023-04-09T14:48:26.420Z,5.28
2023-04-09T14:50:53.693Z,5.30
2023-04-09T14:53:20.972Z,5.20
2023-04-09T14:55:48.292Z,5.43
2023-04-09T14:58:16.935Z,5.32
2023-04-09T15:00:44.880Z,5.20
2023-04-09T15:03:12.498Z,5.70
2023-04-09T15:05:40.050Z,6.03
2023-04-09T15:08:07.419Z,5.20
2023-04-09T15:10:36.715Z,4.93
2023-04-09T15:13:04.046Z,5.13
2023-04-09T15:15:32.975Z,5.15
2023-04-09T15:18:05.349Z,5.63
2023-04-09T15:20:32.791Z,5.28
2023-04-09T15:23:00.292Z,4.70
2023-04-09T15:25:27.579Z,5.40
2023-04-09T15:27:54.891Z,5.80
2023-04-09T15:30:22.251Z,5.88
2023-04-09T15:32:51.033Z,5.63
2023-04-09T15:35:23.937Z,5.18
2023-04-09T15:37:51.318Z,4.78
2023-04-09T15:40:18.781Z,4.95
2023-04-09T15:42:46.066Z,4.90
2023-04-09T15:45:15.527Z,5.15
2023-04-09T15:47:44.528Z,4.57
2023-04-09T15:50:13.327Z,4.72
2023-04-09T15:52:40.721Z,4.63
2023-04-09T15:55:08.886Z,4.80
2023-04-09T15:57:36.427Z,4.97
2023-04-09T16:00:04.085Z,5.35
2023-04-09T16:02:31.537Z,4.85
2023-04-09T16:04:58.964Z,5.88
2023-04-09T16:07:27.643Z,5.00
2023-04-09T16:09:55.035Z,5.75
2023-04-09T16:12:23.196Z,5.13
2023-04-09T16:14:50.531Z,4.75
2023-04-09T16:17:17.981Z,5.30
2023-04-09T16:19:45.343Z,5.13
2023-04-09T16:22:13.234Z,5.40
2023-04-09T16:24:41.950Z,4.72
2023-04-09T16:27:09.287Z,4.90
2023-04-09T16:29:36.593Z,4.88
2023-04-09T16:32:04.555Z,4.60
2023-04-09T16:34:32.346Z,4.95
2023-04-09T16:36:59.675Z,4.88
2023-04-09T16:39:26.987Z,5.05
2023-04-09T16:41:55.715Z,4.45
2023-04-09T16:44:23.133Z,5.70
2023-04-09T16:46:50.435Z,5.00
2023-04-09T16:49:17.738Z,4.93
2023-04-09T16:51:45.968Z,5.75
2023-04-09T16:54:13.267Z,5.82
2023-04-09T16:56:40.629Z,5.30
2023-04-09T16:59:09.305Z,5.88
2023-04-09T17:01:36.700Z,5.15
2023-04-09T17:04:04.210Z,5.05
2023-04-09T17:06:31.938Z,4.82
2023-04-09T17:08:59.391Z,5.03
2023-04-09T17:11:26.752Z,4.65
2023-04-09T17:13:54.348Z,5.60
2023-04-09T17:16:22.985Z,4.53
2023-04-09T17:18:50.509Z,4.68
2023-04-09T17:21:17.842Z,4.60
2023-04-09T17:23:45.425Z,4.95
2023-04-09T17:26:12.820Z,5.40
2023-04-09T17:28:42.004Z,5.20
2023-04-09T17:31:12.898Z,5.25
2023-04-09T17:33:41.571Z,4.68
2023-04-09T17:36:09.148Z,5.25
2023-04-09T17:38:36.508Z,5.70
2023-04-09T17:41:05.212Z,6.38
2023-04-09T17:43:34.297Z,5.80
2023-04-09T17:46:01.650Z,6.32
2023-04-09T17:48:30.744Z,5.63
2023-04-09T17:51:00.538Z,5.90
2023-04-09T17:53:27.966Z,5.40
2023-04-09T17:55:55.271Z,5.63
2023-04-09T17:58:24.185Z,6.30
2023-04-09T18:00:51.718Z,5.13
2023-04-09T18:03:19.256Z,5.80
2023-04-09T18:05:46.847Z,5.47
2023-04-09T18:08:15.633Z,5.28
2023-04-09T18:10:43.219Z,5.25
2023-04-09T18:13:10.553Z,5.65
2023-04-09T18:15:37.895Z,5.75
2023-04-09T18:18:05.770Z,5.50
2023-04-09T18:20:33.113Z,5.70
2023-04-09T18:23:00.548Z,6.03
2023-04-09T18:25:29.434Z,5.43
2023-04-09T18:27:56.910Z,5.85
2023-04-09T18:30:26.060Z,5.75
2023-04-09T18:32:53.476Z,5.75
2023-04-09T18:35:20.943Z,5.72
2023-04-09T18:37:48.276Z,5.32
2023-04-09T18:40:17.850Z,5.97
2023-04-09T18:42:50.060Z,6.90
2023-04-09T18:45:17.434Z,5.82
2023-04-09T18:47:45.097Z,6.40
2023-04-09T18:50:15.010Z,6.32
2023-04-09T18:52:42.331Z,6.80
2023-04-09T18:55:10.160Z,6.53
2023-04-09T18:57:37.454Z,6.75
2023-04-09T19:00:06.996Z,6.57
2023-04-09T19:02:34.420Z,6.47
2023-04-09T19:05:02.110Z,6.38
2023-04-09T19:07:29.597Z,6.90
2023-04-09T19:09:57.399Z,6.65
2023-04-09T19:12:24.937Z,6.35
2023-04-09T19:14:52.835Z,6.90
2023-04-09T19:17:22.315Z,6.60
2023-04-09T19:19:49.631Z,6.80
2023-04-09T19:22:17.003Z,7.20
2023-04-09T19:24:44.466Z,7.22
2023-04-09T19:27:12.310Z,7.10
2023-04-09T19:29:39.663Z,6.70
2023-04-09T19:32:09.109Z,7.18
2023-04-09T19:34:37.765Z,7.18
2023-04-09T19:37:05.286Z,7.13
2023-04-09T19:39:32.587Z,7.07
2023-04-09T19:41:59.928Z,6.80
2023-04-09T19:44:27.221Z,6.93
2023-04-09T19:46:54.543Z,6.57
2023-04-09T19:49:21.812Z,6.38
2023-04-09T19:51:51.295Z,6.85
2023-04-09T19:54:18.659Z,6.05
2023-04-09T19:56:45.969Z,6.25
2023-04-09T19:59:13.284Z,6.90
2023-04-09T20:01:40.855Z,7.03
2023-04-09T20:04:09.136Z,6.45
2023-04-09T20:06:36.540Z,6.95
2023-04-09T20:09:05.642Z,7.03
2023-04-09T20:11:33.016Z,7.75
2023-04-09T20:14:00.294Z,6.90
2023-04-09T20:16:27.629Z,7.35
2023-04-09T20:18:55.155Z,7.82
2023-04-09T20:21:23.038Z,8.43
2023-04-09T20:23:50.362Z,8.48
2023-04-09T20:26:19.021Z,8.77
2023-04-09T20:28:46.274Z,8.07
2023-04-09T20:31:13.671Z,8.45
2023-04-09T20:33:41.418Z,8.20
2023-04-09T20:36:14.379Z,8.05
2023-04-09T20:38:41.795Z,8.27
2023-04-09T20:41:09.063Z,7.28
2023-04-09T20:43:38.293Z,7.00
2023-04-09T20:46:06.084Z,7.68
2023-04-09T20:48:33.492Z,7.78
2023-04-09T20:51:01.329Z,7.55
2023-04-09T20:53:28.714Z,8.55
2023-04-09T20:55:56.041Z,7.35
2023-04-09T20:58:23.301Z,7.85
2023-04-09T21:00:51.970Z,7.43
2023-04-09T21:03:19.409Z,7.55
2023-04-09T21:05:46.766Z,7.63
2023-04-09T21:08:15.324Z,8.25
2023-04-09T21:10:42.691Z,8.43
2023-04-09T21:13:10.078Z,7.88
2023-04-09T21:15:37.369Z,8.50
2023-04-09T21:18:06.435Z,7.97
2023-04-09T21:20:33.832Z,8.05
2023-04-09T21:23:01.110Z,7.80
2023-04-09T21:25:28.607Z,7.97
2023-04-09T21:27:56.140Z,9.07
2023-04-09T21:30:23.432Z,7.95
2023-04-09T21:32:50.894Z,8.73
2023-04-09T21:35:19.726Z,8.88
2023-04-09T21:37:47.054Z,8.13
2023-04-09T21:40:15.593Z,8.40
2023-04-09T21:42:44.645Z,8.73
2023-04-09T21:45:12.230Z,8.55
2023-04-09T21:47:39.587Z,8.52
2023-04-09T21:50:08.317Z,8.10
2023-04-09T21:52:37.162Z,8.52
2023-04-09T21:55:04.593Z,9.02
2023-04-09T21:57:31.949Z,10.18
2023-04-09T21:59:59.340Z,9.60
2023-04-09T22:02:28.167Z,10.25
2023-04-09T22:04:55.649Z,10.32
2023-04-09T22:07:22.989Z,10.32
2023-04-09T22:09:54.354Z,9.50
2023-04-09T22:12:21.655Z,9.55
2023-04-09T22:14:48.988Z,9.95
2023-04-09T22:17:17.054Z,9.85
2023-04-09T22:19:44.382Z,10.43
2023-04-09T22:22:14.753Z,9.60
2023-04-09T22:24:43.962Z,9.45
2023-04-09T22:27:12.913Z,9.85
2023-04-09T22:29:40.368Z,9.25
2023-04-09T22:32:07.759Z,9.10
2023-04-09T22:34:35.061Z,10.13
2023-04-09T22:37:02.499Z,10.40
2023-04-09T22:39:29.810Z,9.90
2023-04-09T22:41:58.245Z,8.98
2023-04-09T22:44:26.863Z,9.82
2023-04-09T22:46:54.241Z,9.98
2023-04-09T22:49:23.504Z,9.85
2023-04-09T22:51:50.869Z,9.43
2023-04-09T22:54:18.148Z,9.02
2023-04-09T22:56:46.136Z,9.40
2023-04-09T22:59:13.486Z,10.10
2023-04-09T23:01:43.236Z,10.02
2023-04-09T23:04:10.746Z,10.02
2023-04-09T23:06:38.040Z,10.18
2023-04-09T23:09:05.376Z,9.93
2023-04-09T23:11:32.651Z,9.63
2023-04-09T23:13:59.982Z,9.25
2023-04-09T23:16:27.768Z,9.68
2023-04-09T23:18:56.586Z,10.70
2023-04-09T23:21:24.052Z,11.20
2023-04-09T23:23:51.429Z,10.68
2023-04-09T23:26:18.809Z,11.70
2023-04-09T23:28:46.073Z,10.80
2023-04-09T23:31:13.429Z,10.35
2023-04-09T23:33:40.774Z,10.10
2023-04-09T23:36:09.872Z,10.43
2023-04-09T23:38:37.172Z,10.07
2023-04-09T23:41:04.545Z,10.32
2023-04-09T23:43:32.323Z,10.43
2023-04-09T23:45:59.626Z,9.63
2023-04-09T23:48:26.943Z,10.65
2023-04-09T23:50:54.307Z,10.73
2023-04-09T23:53:23.104Z,10.85
2023-04-09T23:55:50.906Z,9.50
2023-04-09T23:58:18.674Z,9.30
